Time;durP1;ratioP1;P1;durP2;ratioP2;P2;SDS_P1;SDS_P2;PMS_P1;PMS_P2;Temp;Humidity;BMP_temperature;BMP_pressure;BME280_temperature;BME280_humidity;BME280_pressure;Samples;Min_cycle;Max_cycle;Signal;HPM_P1;HPM_P2
2023/11/01 09:55:45;;;;;;;18.00;11.90;;;;;;;18.37;64.27;99320.42;103232;1290;600894;-69
2023/11/01 09:58:13;;;;;;;19.30;11.80;;;;;;;18.37;64.27;99321.81;104936;1272;63977;-75
2023/11/01 10:00:41;;;;;;;18.20;11.40;;;;;;;18.40;64.40;99320.72;105316;1272;59220;-73
2023/11/01 10:03:08;;;;;;;20.00;11.60;;;;;;;18.43;64.12;99317.30;105879;1271;72123;-69
2023/11/01 10:05:36;;;;;;;15.70;11.70;;;;;;;18.44;64.00;99301.98;105133;1266;60975;-73
2023/11/01 10:08:03;;;;;;;20.90;13.60;;;;;;;18.44;63.94;99292.00;105040;1267;63795;-76
2023/11/01 10:10:31;;;;;;;19.60;11.70;;;;;;;18.45;63.92;99287.77;105055;1264;405331;-75
2023/11/01 10:12:59;;;;;;;23.10;12.90;;;;;;;18.46;63.87;99295.38;105558;1267;61945;-70
2023/11/01 10:15:26;;;;;;;21.90;14.10;;;;;;;18.46;63.67;99299.23;105400;1269;73184;-71
2023/11/01 10:17:54;;;;;;;23.00;17.20;;;;;;;18.45;63.42;99297.10;105438;1263;68017;-73
2023/11/01 10:20:27;;;;;;;22.50;17.10;;;;;;;18.44;63.34;99301.51;105106;1264;66280;-68
2023/11/01 10:22:55;;;;;;;25.40;17.30;;;;;;;18.44;63.29;99304.01;105367;1269;59743;-70
2023/11/01 10:25:24;;;;;;;18.50;14.10;;;;;;;18.42;63.23;99306.00;104926;1271;59577;-71
2023/11/01 10:27:54;;;;;;;17.90;13.00;;;;;;;18.39;63.04;99310.55;105026;1269;64395;-70
2023/11/01 10:30:21;;;;;;;21.70;15.30;;;;;;;18.33;62.81;99311.80;105430;1269;66767;-74
2023/11/01 10:32:59;;;;;;;24.20;16.40;;;;;;;18.28;62.91;99312.77;105019;1267;73783;-71
2023/11/01 10:35:27;;;;;;;30.90;18.40;;;;;;;18.25;62.96;99307.48;104819;1263;59724;-73
2023/11/01 10:37:59;;;;;;;28.20;20.70;;;;;;;18.21;62.93;99305.31;105649;1269;59871;-74
2023/11/01 10:40:29;;;;;;;24.90;15.30;;;;;;;18.15;62.73;99310.67;105467;1270;75210;-73
2023/11/01 10:42:59;;;;;;;23.80;13.40;;;;;;;18.10;62.72;99313.48;105063;1267;59720;-73
2023/11/01 10:45:26;;;;;;;14.60;11.30;;;;;;;18.07;62.63;99311.73;105063;1272;63272;-72
2023/11/01 10:47:54;;;;;;;17.30;11.00;;;;;;;18.05;62.46;99319.69;105349;1270;59716;-75
2023/11/01 10:50:25;;;;;;;19.90;12.20;;;;;;;18.01;62.44;99322.01;105267;1263;61343;-74
2023/11/01 10:52:53;;;;;;;18.40;13.10;;;;;;;17.97;62.41;99323.14;105352;1269;75237;-74
2023/11/01 10:55:20;;;;;;;24.00;17.40;;;;;;;17.95;62.41;99326.98;105229;1270;59749;-71
2023/11/01 10:57:49;;;;;;;27.80;20.60;;;;;;;17.92;62.46;99322.07;105042;1267;64443;-71
2023/11/01 11:00:24;;;;;;;29.60;21.00;;;;;;;17.90;62.64;99320.04;105284;1269;59775;-77
2023/11/01 11:03:25;;;;;;;21.50;15.70;;;;;;;17.88;62.76;99315.96;105265;1272;59701;-74
2023/11/01 11:05:53;;;;;;;22.80;13.40;;;;;;;17.89;62.96;99316.17;104952;1261;62919;-74
2023/11/01 11:08:21;;;;;;;17.90;12.50;;;;;;;17.92;62.95;99302.05;104944;1261;68578;-71
2023/11/01 11:10:48;;;;;;;20.80;12.20;;;;;;;17.96;63.21;99300.27;105268;1260;64629;-77
2023/11/01 11:13:19;;;;;;;15.60;11.60;;;;;;;18.02;63.20;99312.19;105011;1264;64007;-78
2023/11/01 11:15:50;;;;;;;17.90;11.40;;;;;;;18.05;63.18;99312.41;105277;1260;60776;-73
2023/11/01 11:18:23;;;;;;;21.20;12.10;;;;;;;18.06;63.16;99307.63;105266;1266;66886;-74
2023/11/01 11:20:51;;;;;;;15.20;10.90;;;;;;;18.07;63.30;99302.89;105795;1260;59748;-74
2023/11/01 11:23:21;;;;;;;17.70;11.10;;;;;;;18.04;63.51;99298.80;105628;1266;73730;-75
2023/11/01 11:25:51;;;;;;;29.10;17.00;;;;;;;17.97;63.96;99303.98;105407;1264;62915;-76
2023/11/01 11:28:22;;;;;;;20.60;13.70;;;;;;;17.92;64.31;99309.44;105197;1261;60398;-74
2023/11/01 11:31:15;;;;;;;21.70;12.60;;;;;;;17.87;64.64;99312.00;105324;1267;66792;-72
2023/11/01 11:33:49;;;;;;;19.00;12.70;;;;;;;17.77;65.27;99317.48;105434;1266;59650;-73
2023/11/01 11:36:18;;;;;;;18.90;12.80;;;;;;;17.67;65.91;99322.02;105113;1260;73896;-72
2023/11/01 11:38:49;;;;;;;18.30;14.60;;;;;;;17.57;66.22;99326.73;105307;1266;59717;-76
2023/11/01 11:41:20;;;;;;;20.40;14.10;;;;;;;17.52;66.63;99340.81;105307;1275;59653;-70
2023/11/01 11:44:04;;;;;;;21.20;13.40;;;;;;;17.44;67.09;99332.28;105228;1260;66816;-72
2023/11/01 11:46:45;;;;;;;24.20;16.00;;;;;;;17.37;67.53;99327.83;105248;1266;61065;-73
2023/11/01 11:52:06;;;;;;;30.50;24.70;;;;;;;17.28;68.26;99338.52;105097;1266;59978;-71
2023/11/01 11:54:34;;;;;;;29.00;22.70;;;;;;;17.25;68.48;99341.86;105491;1260;60376;-71
2023/11/01 11:57:08;;;;;;;30.40;23.10;;;;;;;17.23;68.98;99342.88;105620;1265;66703;-71
2023/11/01 11:59:35;;;;;;;35.10;24.80;;;;;;;17.15;69.37;99344.43;105303;1261;61155;-74
2023/11/01 12:02:10;;;;;;;30.80;22.90;;;;;;;17.05;69.88;99345.85;105278;1266;74582;-76
2023/11/01 12:04:38;;;;;;;28.10;20.30;;;;;;;16.99;70.28;99344.23;105274;1260;63701;-73
2023/11/01 12:07:07;;;;;;;29.80;19.60;;;;;;;16.91;70.84;99350.34;105315;1261;62777;-70
2023/11/01 12:09:35;;;;;;;25.70;18.00;;;;;;;16.84;71.14;99359.52;105270;1261;75295;-73
2023/11/01 12:12:11;;;;;;;25.40;21.40;;;;;;;16.79;71.55;99367.05;105609;1261;59535;-73
2023/11/01 12:14:42;;;;;;;26.00;16.90;;;;;;;16.72;71.85;99375.05;105835;1257;72504;-71
2023/11/01 12:17:09;;;;;;;19.20;15.10;;;;;;;16.64;72.29;99374.58;106599;1257;62863;-72
2023/11/01 12:27:36;;;;;;;16.70;12.60;;;;;;;16.22;74.39;99380.45;102462;1293;606550;-71
2023/11/01 12:30:03;;;;;;;16.90;9.60;;;;;;;16.10;74.53;99386.52;105241;1264;59165;-71
2023/11/01 12:32:31;;;;;;;14.10;9.70;;;;;;;16.00;74.65;99385.50;105793;1256;59363;-71
2023/11/01 12:34:58;;;;;;;24.00;17.30;;;;;;;15.93;74.95;99382.35;105740;1259;63699;-75
2023/11/01 12:37:29;;;;;;;180.10;164.10;;;;;;;15.84;75.05;99380.85;105558;1259;60104;-71
2023/11/01 12:40:04;;;;;;;21.60;15.90;;;;;;;15.78;75.13;99372.92;105571;1259;210083;-68
2023/11/01 12:42:33;;;;;;;14.10;10.00;;;;;;;15.71;75.30;99365.33;105786;1252;59454;-71
2023/11/01 12:45:00;;;;;;;16.80;9.20;;;;;;;15.67;75.47;99369.79;106048;1254;59237;-71
2023/11/01 12:47:31;;;;;;;11.60;8.60;;;;;;;15.61;75.61;99375.27;106038;1254;64246;-67
2023/11/01 12:49:58;;;;;;;10.00;7.50;;;;;;;15.53;75.68;99378.02;106169;1253;60073;-71
2023/11/01 12:52:25;;;;;;;23.80;13.80;;;;;;;15.44;75.86;99375.79;105867;1256;65543;-72
2023/11/01 12:54:52;;;;;;;9.80;7.40;;;;;;;15.37;76.21;99367.36;105797;1253;59708;-71
2023/11/01 12:57:19;;;;;;;11.80;8.10;;;;;;;15.28;76.32;99351.05;105804;1254;59747;-74
2023/11/01 12:59:46;;;;;;;68.90;46.90;;;;;;;15.18;76.49;99331.54;105665;1254;65016;-71
2023/11/01 13:02:13;;;;;;;32.40;24.80;;;;;;;15.16;76.77;99322.09;106304;1252;60117;-73
2023/11/01 13:04:42;;;;;;;13.30;9.40;;;;;;;15.16;77.04;99321.88;105791;1254;64928;-75
2023/11/01 13:07:10;;;;;;;8.70;7.00;;;;;;;15.16;77.19;99323.38;105717;1254;59726;-72
2023/11/01 13:09:38;;;;;;;11.20;6.90;;;;;;;15.14;77.19;99327.84;105996;1256;61491;-73
2023/11/01 13:12:11;;;;;;;16.30;12.70;;;;;;;15.10;77.30;99332.66;107120;1253;63255;-75
2023/11/01 13:14:38;;;;;;;11.00;9.80;;;;;;;15.08;77.38;99337.19;105914;1254;60274;-75
2023/11/01 13:17:05;;;;;;;9.90;6.20;;;;;;;15.06;77.47;99345.63;106310;1252;65957;-75
2023/11/01 13:19:33;;;;;;;9.90;6.40;;;;;;;15.01;77.58;99349.48;106342;1253;59564;-74
2023/11/01 13:22:00;;;;;;;8.10;5.80;;;;;;;14.94;77.78;99354.91;106097;1256;59647;-74
2023/11/01 13:24:26;;;;;;;10.20;6.30;;;;;;;14.87;77.98;99353.95;105942;1258;68663;-71
2023/11/01 13:26:53;;;;;;;14.10;6.50;;;;;;;14.82;78.18;99355.38;105948;1254;60197;-73
2023/11/01 13:29:20;;;;;;;11.10;6.40;;;;;;;14.80;78.16;99359.22;105923;1254;64746;-71
2023/11/01 13:31:49;;;;;;;10.00;6.80;;;;;;;14.77;78.32;99363.26;106046;1254;59665;-74
2023/11/01 13:34:19;;;;;;;19.30;13.20;;;;;;;14.76;78.42;99361.45;106187;1253;59659;-75
2023/11/01 13:36:46;;;;;;;22.50;11.30;;;;;;;14.73;78.56;99364.27;106460;1254;64160;-71
2023/11/01 13:39:13;;;;;;;14.30;7.60;;;;;;;14.70;78.91;99362.33;105984;1254;68679;-75
2023/11/01 13:41:40;;;;;;;9.50;6.10;;;;;;;14.69;78.87;99361.33;105727;1254;65692;-72
2023/11/01 13:44:07;;;;;;;19.60;13.30;;;;;;;14.69;78.95;99359.08;106536;1255;59611;-74
2023/11/01 13:46:36;;;;;;;16.10;11.40;;;;;;;14.68;78.98;99355.92;108689;1256;57620;-77
2023/11/01 13:49:03;;;;;;;37.80;9.80;;;;;;;14.69;78.95;99358.38;106080;1256;64853;-71
2023/11/01 13:51:30;;;;;;;8.40;6.20;;;;;;;14.69;79.09;99358.52;105764;1259;60008;-71
2023/11/01 13:53:57;;;;;;;18.70;16.50;;;;;;;14.67;79.11;99355.58;105751;1254;64652;-72
2023/11/01 13:56:24;;;;;;;9.70;7.60;;;;;;;14.66;79.08;99354.41;105831;1254;59653;-69
2023/11/01 13:58:53;;;;;;;11.90;6.60;;;;;;;14.67;79.05;99347.71;105702;1254;59511;-69
2023/11/01 14:01:20;;;;;;;6.90;5.40;;;;;;;14.67;79.13;99341.77;106015;1255;66583;-71
2023/11/01 14:03:50;;;;;;;7.40;5.20;;;;;;;14.69;78.96;99342.60;106454;1254;60002;-69
2023/11/01 14:06:18;;;;;;;45.90;37.60;;;;;;;14.69;78.90;99345.21;105603;1254;64553;-72
2023/11/01 14:08:46;;;;;;;14.00;12.50;;;;;;;14.69;78.91;99346.41;105880;1259;59357;-71
2023/11/01 14:11:13;;;;;;;16.00;14.00;;;;;;;14.68;78.83;99348.17;108399;1254;59124;-75
2023/11/01 14:13:41;;;;;;;12.40;10.20;;;;;;;14.70;78.65;99350.83;108834;1259;65890;-76
2023/11/01 14:16:09;;;;;;;7.00;5.60;;;;;;;14.70;78.64;99354.31;108889;1254;60124;-71
2023/11/01 14:18:38;;;;;;;8.10;6.20;;;;;;;14.67;78.42;99357.67;107300;1254;64101;-72
2023/11/01 14:21:09;;;;;;;6.50;5.10;;;;;;;14.60;78.12;99363.95;106347;1256;60609;-73
2023/11/01 14:23:38;;;;;;;6.60;4.60;;;;;;;14.55;78.16;99360.79;105828;1258;59522;-71
2023/11/01 14:26:06;;;;;;;8.00;5.00;;;;;;;14.52;78.10;99357.16;105981;1254;66360;-74
2023/11/01 14:28:33;;;;;;;6.10;4.30;;;;;;;14.50;78.06;99365.39;106225;1258;60507;-74
2023/11/01 14:31:00;;;;;;;6.40;4.00;;;;;;;14.44;77.82;99377.77;106137;1254;65984;-73
2023/11/01 14:33:27;;;;;;;6.00;4.60;;;;;;;14.38;77.82;99373.16;106110;1255;60002;-71
2023/11/01 14:35:55;;;;;;;5.90;4.10;;;;;;;14.33;77.84;99370.41;105252;1262;59647;-68
2023/11/01 14:38:22;;;;;;;5.80;4.10;;;;;;;14.29;78.14;99367.38;106202;1255;66263;-70
2023/11/01 14:40:49;;;;;;;5.70;4.20;;;;;;;14.26;78.31;99380.29;105813;1255;60605;-70
2023/11/01 14:43:19;;;;;;;7.20;5.30;;;;;;;14.23;78.23;99384.89;106236;1254;65928;-70
2023/11/01 14:45:45;;;;;;;13.60;9.80;;;;;;;14.19;78.24;99391.14;105915;1258;59520;-69
2023/11/01 14:48:12;;;;;;;23.50;15.20;;;;;;;14.17;78.32;99398.06;105873;1257;59549;-73
2023/11/01 14:50:39;;;;;;;25.90;17.50;;;;;;;14.17;78.34;99399.16;105691;1254;65056;-71
2023/11/01 14:53:07;;;;;;;22.30;14.70;;;;;;;14.16;78.50;99390.52;106197;1254;60152;-69
2023/11/01 14:55:33;;;;;;;19.20;12.90;;;;;;;14.16;78.54;99386.36;105549;1254;66062;-71
2023/11/01 14:58:00;;;;;;;20.10;13.00;;;;;;;14.14;78.67;99385.41;105869;1255;60007;-72
2023/11/01 15:00:27;;;;;;;18.90;12.90;;;;;;;14.14;78.78;99377.04;106172;1257;59577;-73
2023/11/01 15:02:54;;;;;;;19.10;13.10;;;;;;;14.15;78.96;99377.63;106099;1258;66293;-70
2023/11/01 15:05:23;;;;;;;17.70;12.50;;;;;;;14.14;79.02;99370.30;106413;1254;60589;-71
2023/11/01 15:07:50;;;;;;;13.30;10.20;;;;;;;14.12;79.09;99362.73;105398;1254;63709;-69
2023/11/01 15:10:19;;;;;;;10.90;8.70;;;;;;;14.10;79.23;99355.48;105272;1254;59707;-70
2023/11/01 15:12:46;;;;;;;11.70;7.70;;;;;;;14.09;79.33;99343.80;105831;1254;59756;-70
2023/11/01 15:15:12;;;;;;;11.00;7.50;;;;;;;14.06;79.49;99344.21;106413;1254;66267;-70
2023/11/01 15:17:39;;;;;;;10.50;7.30;;;;;;;14.06;79.54;99350.86;105798;1260;59656;-68
2023/11/01 15:20:08;;;;;;;9.00;7.30;;;;;;;14.06;79.69;99348.56;105934;1255;66006;-68
2023/11/01 15:22:35;;;;;;;8.20;6.70;;;;;;;14.07;79.67;99343.77;105833;1257;62560;-69
2023/11/01 15:25:02;;;;;;;9.30;6.00;;;;;;;14.08;79.70;99337.16;106089;1254;59756;-68
2023/11/01 15:27:29;;;;;;;8.90;6.30;;;;;;;14.08;79.71;99336.67;105757;1258;66325;-69
2023/11/01 15:29:56;;;;;;;6.90;5.90;;;;;;;14.05;79.73;99346.31;105730;1259;59632;-69
2023/11/01 15:32:23;;;;;;;8.80;6.40;;;;;;;14.03;79.76;99358.38;105545;1254;67287;-72
2023/11/01 15:34:50;;;;;;;8.90;6.00;;;;;;;14.02;79.83;99367.73;105704;1254;59718;-68
2023/11/01 15:37:17;;;;;;;8.30;5.50;;;;;;;14.01;79.74;99374.55;105695;1259;59632;-69
2023/11/01 15:39:47;;;;;;;9.30;5.80;;;;;;;13.99;79.65;99383.06;105790;1256;66102;-69
2023/11/01 15:42:14;;;;;;;8.30;5.40;;;;;;;13.97;79.74;99385.65;105704;1255;59641;-71
2023/11/01 15:44:43;;;;;;;7.30;5.90;;;;;;;13.97;79.78;99393.61;105749;1254;65857;-69
2023/11/01 15:47:12;;;;;;;9.40;6.70;;;;;;;13.97;79.76;99401.35;105716;1259;59713;-67
2023/11/01 15:49:39;;;;;;;8.70;7.40;;;;;;;13.95;79.68;99404.64;106023;1258;59562;-68
2023/11/01 15:52:06;;;;;;;13.00;9.30;;;;;;;13.92;79.79;99402.84;105675;1255;66035;-70
2023/11/01 15:54:33;;;;;;;13.50;9.40;;;;;;;13.90;79.95;99403.73;105592;1259;60389;-67
2023/11/01 15:57:00;;;;;;;12.10;9.30;;;;;;;13.88;79.99;99400.02;106207;1257;64131;-69
2023/11/01 15:59:28;;;;;;;12.00;9.40;;;;;;;13.88;80.06;99396.38;105513;1257;59519;-69
2023/11/01 16:01:55;;;;;;;13.60;9.50;;;;;;;13.86;80.11;99399.90;105607;1254;59653;-72
2023/11/01 16:04:22;;;;;;;14.90;10.00;;;;;;;13.85;80.21;99395.05;105705;1258;65970;-68
2023/11/01 16:06:49;;;;;;;15.90;10.60;;;;;;;13.85;80.27;99390.15;105653;1254;59923;-68
2023/11/01 16:09:17;;;;;;;18.30;11.40;;;;;;;13.85;80.31;99396.88;105528;1254;66063;-68
2023/11/01 16:11:45;;;;;;;15.60;10.10;;;;;;;13.85;80.40;99404.08;105587;1254;60274;-68
2023/11/01 16:14:12;;;;;;;16.70;10.20;;;;;;;13.84;80.45;99398.67;105930;1256;59653;-67
2023/11/01 16:16:43;;;;;;;15.20;10.20;;;;;;;13.83;80.52;99385.34;105454;1261;74931;-69
2023/11/01 16:19:14;;;;;;;15.50;10.40;;;;;;;13.84;80.58;99386.01;105608;1254;60033;-68
2023/11/01 16:21:43;;;;;;;19.00;11.20;;;;;;;13.85;80.73;99389.73;105465;1254;65660;-70
2023/11/01 16:24:11;;;;;;;16.30;10.30;;;;;;;13.83;80.77;99396.75;105526;1257;59821;-71
2023/11/01 16:26:39;;;;;;;11.80;7.60;;;;;;;13.74;81.13;99403.52;105446;1254;59643;-67
2023/11/01 16:29:06;;;;;;;8.50;6.10;;;;;;;13.74;81.30;99407.93;105468;1256;65702;-67
2023/11/01 16:31:33;;;;;;;8.20;5.50;;;;;;;13.81;81.20;99407.90;105256;1254;60334;-69
2023/11/01 16:34:02;;;;;;;5.90;3.60;;;;;;;13.82;81.06;99421.67;105432;1256;73769;-69
2023/11/01 16:36:31;;;;;;;5.00;3.30;;;;;;;13.73;80.31;99429.46;105493;1260;60438;-70
2023/11/01 16:38:58;;;;;;;4.10;3.50;;;;;;;13.58;79.52;99439.39;105523;1254;61927;-69
2023/11/01 16:41:26;;;;;;;4.30;3.30;;;;;;;13.44;79.09;99438.45;105729;1258;67151;-69
2023/11/01 16:43:52;;;;;;;4.20;3.80;;;;;;;13.33;78.78;99445.21;105580;1257;60630;-70
2023/11/01 16:46:19;;;;;;;5.30;4.40;;;;;;;13.25;78.71;99449.70;105479;1257;65665;-70
2023/11/01 16:48:47;;;;;;;5.00;4.50;;;;;;;13.20;78.65;99452.81;105848;1255;60618;-66
2023/11/01 16:51:14;;;;;;;5.20;3.40;;;;;;;13.13;78.43;99454.48;105384;1254;60363;-70
2023/11/01 16:53:40;;;;;;;3.50;2.50;;;;;;;13.07;78.14;99456.80;105446;1257;67136;-68
2023/11/01 16:56:07;;;;;;;3.30;2.90;;;;;;;12.95;77.82;99457.16;105798;1258;60730;-68
2023/11/01 16:58:37;;;;;;;2.60;2.20;;;;;;;12.85;77.80;99451.77;105189;1257;65611;-68
2023/11/01 17:01:05;;;;;;;3.60;2.40;;;;;;;12.78;77.71;99453.20;105753;1256;62350;-68
2023/11/01 17:03:32;;;;;;;2.60;2.40;;;;;;;12.73;77.58;99452.87;106148;1254;60553;-67
2023/11/01 17:06:02;;;;;;;3.70;2.50;;;;;;;12.66;77.52;99447.77;105838;1259;66911;-72
2023/11/01 17:08:31;;;;;;;3.70;2.50;;;;;;;12.60;77.41;99444.29;105499;1254;60555;-68
2023/11/01 17:10:58;;;;;;;3.40;2.20;;;;;;;12.57;77.40;99444.25;105802;1259;66083;-70
2023/11/01 17:13:25;;;;;;;3.20;2.20;;;;;;;12.53;77.18;99451.37;105250;1262;60533;-67
2023/11/01 17:15:53;;;;;;;4.10;2.40;;;;;;;12.49;77.17;99459.10;105753;1254;60447;-67
2023/11/01 17:18:23;;;;;;;3.10;2.60;;;;;;;12.45;77.07;99465.89;105678;1255;66697;-69
2023/11/01 17:20:52;;;;;;;3.60;2.60;;;;;;;12.42;77.11;99471.44;105380;1259;60421;-68
2023/11/01 17:23:19;;;;;;;3.80;2.80;;;;;;;12.40;77.11;99471.79;105803;1255;65672;-68
2023/11/01 17:25:48;;;;;;;3.40;3.00;;;;;;;12.38;77.16;99473.77;105549;1257;60387;-68
2023/11/01 17:28:24;;;;;;;3.60;2.90;;;;;;;12.33;76.97;99478.33;106056;1256;60500;-68
2023/11/01 17:30:52;;;;;;;4.10;3.20;;;;;;;12.30;77.03;99481.05;105609;1257;65925;-68
2023/11/01 17:33:23;;;;;;;4.20;3.70;;;;;;;12.28;77.04;99485.88;105464;1254;60572;-68
2023/11/01 17:35:50;;;;;;;3.60;3.20;;;;;;;12.26;77.05;99493.88;105390;1254;63842;-69
2023/11/01 17:38:39;;;;;;;3.30;3.00;;;;;;;12.25;77.11;99501.37;105484;1254;60489;-67
2023/11/01 17:41:38;;;;;;;4.10;3.60;;;;;;;12.24;77.12;99501.48;105729;1259;60605;-69
2023/11/01 17:44:05;;;;;;;5.80;4.00;;;;;;;12.23;77.12;99504.09;106783;1254;66949;-68
2023/11/01 17:46:32;;;;;;;5.10;3.60;;;;;;;12.22;77.21;99506.47;105527;1255;60460;-70
2023/11/01 17:48:59;;;;;;;5.20;4.70;;;;;;;12.20;77.29;99508.21;105515;1257;65583;-67
2023/11/01 17:51:29;;;;;;;5.00;4.20;;;;;;;12.19;77.31;99516.15;105920;1259;60444;-69
2023/11/01 17:53:58;;;;;;;4.60;3.90;;;;;;;12.16;77.44;99523.48;105925;1255;60408;-68
2023/11/01 17:56:25;;;;;;;6.30;3.90;;;;;;;12.13;77.52;99529.12;105731;1256;66825;-68
2023/11/01 17:58:56;;;;;;;4.20;3.80;;;;;;;12.11;77.66;99528.39;106660;1254;60489;-68
2023/11/01 18:01:29;;;;;;;5.10;4.30;;;;;;;12.13;77.73;99529.09;106124;1257;66238;-68
2023/11/01 18:03:56;;;;;;;;;;;;;;;12.16;77.78;99524.42;105649;1260;60460;-68
2023/11/01 18:06:24;;;;;;;5.70;4.20;;;;;;;12.17;77.89;99521.64;105703;1257;61331;-68
2023/11/01 18:08:51;;;;;;;4.70;4.20;;;;;;;12.18;77.80;99526.70;105657;1257;66979;-68
2023/11/01 18:11:21;;;;;;;5.60;4.10;;;;;;;12.19;77.83;99533.98;105581;1258;61152;-69
2023/11/01 18:13:49;;;;;;;4.70;4.00;;;;;;;12.19;77.78;99532.20;105862;1259;64397;-67
2023/11/01 18:16:23;;;;;;;5.70;3.80;;;;;;;12.17;77.66;99530.10;106322;1261;60453;-69
2023/11/01 18:18:51;;;;;;;4.80;3.60;;;;;;;12.15;77.76;99525.53;105727;1258;60514;-68
2023/11/01 18:21:23;;;;;;;4.40;4.00;;;;;;;12.16;77.78;99527.40;105803;1257;64825;-68
2023/11/01 18:23:56;;;;;;;4.20;3.80;;;;;;;12.17;77.82;99526.58;106224;1260;60463;-67
2023/11/01 18:26:23;;;;;;;4.30;3.90;;;;;;;12.17;77.71;99525.47;105593;1256;64913;-68
2023/11/01 18:28:53;;;;;;;5.80;3.90;;;;;;;12.16;77.75;99526.30;105698;1259;60335;-68
2023/11/01 18:31:40;;;;;;;4.70;4.20;;;;;;;12.15;77.79;99521.60;105642;1256;60803;-70
2023/11/01 18:34:12;;;;;;;4.40;4.00;;;;;;;12.16;77.76;99521.40;105809;1259;66977;-70
2023/11/01 18:36:41;;;;;;;4.80;4.20;;;;;;;12.15;77.86;99526.98;105413;1257;66379;-68
2023/11/01 18:39:08;;;;;;;5.90;3.90;;;;;;;12.12;77.94;99529.38;105606;1257;64911;-69
2023/11/01 18:41:37;;;;;;;5.50;4.60;;;;;;;12.11;78.13;99532.16;105763;1257;60378;-69
2023/11/01 18:44:26;;;;;;;7.00;5.40;;;;;;;12.10;78.15;99532.08;105478;1263;60526;-71
2023/11/01 18:46:54;;;;;;;5.60;5.00;;;;;;;12.10;78.08;99537.21;106478;1254;65381;-68
2023/11/01 18:49:43;;;;;;;5.30;4.70;;;;;;;12.09;78.12;99539.55;105596;1257;60473;-70
2023/11/01 18:52:10;;;;;;;6.20;4.90;;;;;;;12.09;78.07;99540.45;105661;1257;66012;-67
2023/11/01 18:54:39;;;;;;;5.30;4.60;;;;;;;12.07;78.02;99537.29;106070;1258;60350;-69
2023/11/01 18:57:37;;;;;;;5.50;5.00;;;;;;;12.06;78.07;99538.78;105670;1255;60548;-69
2023/11/01 19:00:11;;;;;;;6.50;5.10;;;;;;;12.05;78.07;99545.76;105611;1259;67060;-70
2023/11/01 19:02:38;;;;;;;7.80;5.20;;;;;;;12.03;78.04;99545.95;105677;1261;60456;-69
2023/11/01 19:05:05;;;;;;;6.90;5.20;;;;;;;12.01;78.05;99549.34;105932;1257;64844;-68
2023/11/01 19:07:36;;;;;;;8.90;5.90;;;;;;;11.99;78.12;99547.98;105734;1257;60440;-69
2023/11/01 19:10:10;;;;;;;9.60;7.60;;;;;;;11.98;78.23;99551.73;105701;1261;60442;-69
2023/11/01 19:12:37;;;;;;;11.40;9.10;;;;;;;11.97;78.15;99554.45;106037;1259;67477;-69
2023/11/01 19:15:10;;;;;;;11.90;9.90;;;;;;;11.97;78.17;99559.23;105391;1257;60654;-71
2023/11/01 19:17:38;;;;;;;13.40;10.10;;;;;;;11.95;78.29;99560.79;105433;1262;63620;-69
2023/11/01 19:20:06;;;;;;;13.10;11.40;;;;;;;11.97;78.45;99560.68;105669;1260;60562;-69
2023/11/01 19:22:34;;;;;;;14.30;11.20;;;;;;;11.98;78.58;99559.34;106055;1254;60479;-69
2023/11/01 19:25:02;;;;;;;14.70;11.40;;;;;;;11.97;78.56;99558.57;105699;1254;66174;-69
2023/11/01 19:27:31;;;;;;;16.80;12.10;;;;;;;11.97;78.60;99555.89;105807;1257;60430;-69
2023/11/01 19:29:58;;;;;;;15.50;12.30;;;;;;;11.98;78.78;99556.17;105641;1255;65833;-70
2023/11/01 19:32:26;;;;;;;15.80;12.10;;;;;;;11.98;78.86;99553.16;106218;1254;60431;-68
2023/11/01 19:34:53;;;;;;;14.60;10.40;;;;;;;11.97;78.82;99550.42;105767;1259;60979;-69
2023/11/01 19:37:20;;;;;;;11.00;9.80;;;;;;;11.97;78.95;99554.13;105755;1256;65700;-69
2023/11/01 19:39:48;;;;;;;15.00;10.80;;;;;;;11.97;79.06;99553.80;105446;1257;60808;-69
2023/11/01 19:42:15;;;;;;;15.40;10.30;;;;;;;11.95;79.20;99553.27;106343;1254;65906;-69
2023/11/01 19:44:41;;;;;;;15.10;10.20;;;;;;;11.97;79.33;99553.41;105356;1262;60572;-69
2023/11/01 19:47:08;;;;;;;12.30;9.70;;;;;;;11.99;79.44;99553.79;105760;1254;60390;-68
2023/11/01 19:49:36;;;;;;;15.90;9.80;;;;;;;11.98;79.40;99560.40;105938;1255;67162;-69
2023/11/01 19:52:03;;;;;;;16.60;9.30;;;;;;;11.98;79.54;99558.42;105897;1257;60312;-70
2023/11/01 19:54:31;;;;;;;13.30;9.20;;;;;;;11.99;79.54;99554.95;105727;1259;65876;-69
2023/11/01 19:56:58;;;;;;;9.40;7.70;;;;;;;12.01;79.69;99551.26;105755;1254;60651;-69
2023/11/01 19:59:25;;;;;;;8.50;6.90;;;;;;;12.01;79.73;99547.36;105673;1259;59365;-71
2023/11/01 20:01:53;;;;;;;9.70;7.50;;;;;;;11.99;79.68;99549.30;105746;1254;67078;-70
2023/11/01 20:04:20;;;;;;;9.80;7.30;;;;;;;11.99;79.65;99553.90;105629;1259;60488;-68
2023/11/01 20:06:49;;;;;;;8.60;6.90;;;;;;;12.00;79.59;99553.30;106760;1257;65927;-70
2023/11/01 20:09:15;;;;;;;8.30;7.10;;;;;;;11.98;79.42;99554.38;105855;1254;60552;-69
2023/11/01 20:11:43;;;;;;;8.10;6.90;;;;;;;11.96;79.46;99556.85;105643;1259;60455;-70
2023/11/01 20:14:12;;;;;;;7.00;6.00;;;;;;;11.96;79.30;99556.71;105677;1257;65394;-70
2023/11/01 20:16:39;;;;;;;8.80;7.10;;;;;;;11.93;79.10;99558.09;105696;1254;60344;-69
2023/11/01 20:19:06;;;;;;;7.60;6.80;;;;;;;11.90;79.02;99560.81;105675;1254;64005;-72
2023/11/01 20:21:34;;;;;;;7.50;6.60;;;;;;;11.88;78.95;99560.11;106205;1254;59233;-68
2023/11/01 20:24:01;;;;;;;7.90;7.10;;;;;;;11.86;78.77;99557.35;105629;1257;60424;-71
2023/11/01 20:26:29;;;;;;;7.80;6.20;;;;;;;11.83;78.81;99558.19;105597;1257;67175;-70
2023/11/01 20:28:56;;;;;;;7.20;6.00;;;;;;;11.81;78.54;99557.01;105695;1259;60522;-69
2023/11/01 20:31:23;;;;;;;8.20;6.60;;;;;;;11.79;78.34;99559.64;105679;1259;64028;-68
2023/11/01 20:33:51;;;;;;;9.30;5.50;;;;;;;11.75;77.96;99561.17;105758;1259;60789;-69
2023/11/01 20:36:18;;;;;;;6.80;5.90;;;;;;;11.70;77.83;99561.14;105656;1257;60543;-69
2023/11/01 20:38:45;;;;;;;6.50;5.70;;;;;;;11.68;77.73;99558.53;105478;1256;65598;-69
2023/11/01 20:41:13;;;;;;;7.50;5.60;;;;;;;11.68;77.48;99559.43;105830;1259;60440;-69
2023/11/01 20:43:40;;;;;;;6.30;5.70;;;;;;;11.64;77.06;99560.31;105813;1257;66107;-70
2023/11/01 20:46:07;;;;;;;6.10;5.10;;;;;;;11.59;76.92;99563.68;106026;1257;60438;-68
2023/11/01 20:48:34;;;;;;;8.00;6.10;;;;;;;11.54;76.81;99563.95;105534;1262;60442;-69
2023/11/01 20:51:03;;;;;;;6.70;5.50;;;;;;;11.49;76.61;99560.90;106256;1258;66566;-69
2023/11/01 20:53:30;;;;;;;6.60;5.10;;;;;;;11.44;76.44;99565.06;105847;1257;60434;-68
2023/11/01 20:55:57;;;;;;;8.20;5.50;;;;;;;11.41;76.35;99567.88;105727;1257;62678;-69
2023/11/01 20:58:27;;;;;;;8.90;5.20;;;;;;;11.37;76.23;99569.77;105690;1254;60378;-69
2023/11/01 21:00:54;;;;;;;6.70;5.60;;;;;;;11.34;76.11;99573.63;105876;1254;60463;-69
2023/11/01 21:03:24;;;;;;;8.50;5.80;;;;;;;11.31;75.93;99571.81;106135;1257;65284;-70
2023/11/01 21:05:51;;;;;;;7.50;5.40;;;;;;;11.29;75.74;99568.81;106328;1257;60355;-68
2023/11/01 21:08:17;;;;;;;7.40;5.50;;;;;;;11.26;75.59;99572.42;105906;1254;64704;-68
2023/11/01 21:10:44;;;;;;;7.00;5.10;;;;;;;11.22;75.45;99572.63;105835;1257;60519;-68
2023/11/01 21:13:11;;;;;;;7.10;5.40;;;;;;;11.21;75.26;99580.38;105971;1259;60587;-68
2023/11/01 21:15:39;;;;;;;5.60;4.80;;;;;;;11.17;75.16;99585.27;105543;1262;66873;-68
2023/11/01 21:18:06;;;;;;;5.80;4.70;;;;;;;11.14;75.02;99591.38;105585;1260;60463;-68
2023/11/01 21:20:36;;;;;;;5.90;5.10;;;;;;;11.12;74.93;99591.09;105410;1256;62630;-69
2023/11/01 21:23:04;;;;;;;6.80;5.60;;;;;;;11.10;74.84;99593.37;105312;1257;60588;-68
2023/11/01 21:25:30;;;;;;;9.00;5.50;;;;;;;11.08;74.71;99595.27;105217;1257;60426;-68
2023/11/01 21:28:00;;;;;;;7.50;6.10;;;;;;;11.06;74.63;99597.24;105219;1257;65362;-71
2023/11/01 21:30:27;;;;;;;9.80;6.10;;;;;;;11.03;74.61;99597.84;105358;1257;60895;-68
2023/11/01 21:32:55;;;;;;;9.20;6.00;;;;;;;11.01;74.58;99602.13;105763;1257;64036;-68